Etusivu
METAR-TAF:

METAR-TAF

Lentoasemat :

Najran, Saudi-Arabia

Leveyspiiri: 17-37N, Pituuspiiri: 044-25E, korkeus merenpinnasta: 1212 m

Tämänhetkinen sää

Tämä raportti tehtiin 28 minuuttia sitten, kello 00.00 UTC
Tuuli 4 kn pohjoisen/luoteesta
Lämpötila 16°C
Kosteus 25%
Ilmanpaine 1019 hPa
Näkyvyys 10 km tai enemmän
ei pilviä alle 1500 m:ssä eikä cumulonimbus-pilviä

METAR: OENG 280000Z 34004KT CAVOK 16/M04 Q1019 NOSIG

Aika: 03:28 (00:28 UTC)

Sääennuste

Tämä raportti tehtiin 1 tunti ja 28 minuuttia sitten, kello 23.00 UTC
Ennuste voimassa 28. päivästä klo 00 UTC - 29. päivään klo 06 UTC
Tuuli 3 kn eri suunnista
Näkyvyys 10 km tai enemmän
ei pilviä alle 1500 m:ssä eikä cumulonimbus-pilviä
Tulossa
28. päivästä klo 06 UTC - 28. päivään klo 08 UTC
Tuuli 12 kn idästä
Tulossa
28. päivästä klo 18 UTC - 28. päivään klo 20 UTC
Tuuli 8 kn lännestä

TAF: OENG 272300Z 2800/2906 VRB03KT CAVOK BECMG 2806/2808 08012KT BECMG 2818/2820 27008KT

Säähavainnot ja -ennusteet yli 4000 lentoasemalta (METAR- ja TAF-raportit).

Käytössä olevat sääasemat on merkitty karttaan keltaisilla ja punaisilla pisteillä.

Aseta hiiri pisteen päälle nähdäksesi sääaseman nimen.

Klikkaa sitten nähdäksesi säähavainnot ja -ennusteet.

Kartan vaihtaminen: klikkaa mustalla rastilla varustettuja vihreitä pisteitä, niin voit zoomata sisään; viivalla varustettua vihreää pistettä, niin voit zoomata ulos tai vihreitä nuolia, niin pääset viereisille kartoille.


METAR-TAF: